sensor_id;sensor_type;location;lat;lon;timestamp;P1;durP1;ratioP1;P2;durP2;ratioP2
10114;SDS011;5097;43.260;27.812;2023-10-31T00:01:11;4.60;;;4.17;;
10114;SDS011;5097;43.260;27.812;2023-10-31T00:03:55;5.10;;;4.27;;
10114;SDS011;5097;43.260;27.812;2023-10-31T00:06:39;6.17;;;4.97;;
10114;SDS011;5097;43.260;27.812;2023-10-31T00:09:27;4.30;;;4.00;;
10114;SDS011;5097;43.260;27.812;2023-10-31T00:12:11;3.77;;;3.47;;
10114;SDS011;5097;43.260;27.812;2023-10-31T00:14:56;5.10;;;3.70;;
10114;SDS011;5097;43.260;27.812;2023-10-31T00:17:41;4.37;;;3.57;;
10114;SDS011;5097;43.260;27.812;2023-10-31T00:20:25;7.20;;;3.83;;
10114;SDS011;5097;43.260;27.812;2023-10-31T00:23:09;4.50;;;4.10;;
10114;SDS011;5097;43.260;27.812;2023-10-31T00:25:53;6.37;;;4.67;;
10114;SDS011;5097;43.260;27.812;2023-10-31T00:28:37;5.83;;;4.20;;
10114;SDS011;5097;43.260;27.812;2023-10-31T00:31:22;7.03;;;4.50;;
10114;SDS011;5097;43.260;27.812;2023-10-31T00:34:06;5.70;;;4.67;;
10114;SDS011;5097;43.260;27.812;2023-10-31T00:36:51;6.90;;;4.30;;
10114;SDS011;5097;43.260;27.812;2023-10-31T00:39:35;4.87;;;4.40;;
10114;SDS011;5097;43.260;27.812;2023-10-31T00:42:19;7.93;;;4.40;;
10114;SDS011;5097;43.260;27.812;2023-10-31T00:45:04;12.07;;;5.67;;
10114;SDS011;5097;43.260;27.812;2023-10-31T00:47:50;7.23;;;4.73;;
10114;SDS011;5097;43.260;27.812;2023-10-31T00:50:34;8.67;;;5.70;;
10114;SDS011;5097;43.260;27.812;2023-10-31T00:53:18;10.07;;;5.53;;
10114;SDS011;5097;43.260;27.812;2023-10-31T00:56:03;10.17;;;5.67;;
10114;SDS011;5097;43.260;27.812;2023-10-31T00:58:47;11.17;;;6.50;;
10114;SDS011;5097;43.260;27.812;2023-10-31T01:01:31;7.23;;;5.77;;
10114;SDS011;5097;43.260;27.812;2023-10-31T01:04:17;8.93;;;5.80;;
10114;SDS011;5097;43.260;27.812;2023-10-31T01:07:02;13.20;;;7.37;;
10114;SDS011;5097;43.260;27.812;2023-10-31T01:09:46;12.03;;;6.50;;
10114;SDS011;5097;43.260;27.812;2023-10-31T01:12:30;13.43;;;7.30;;
10114;SDS011;5097;43.260;27.812;2023-10-31T01:15:16;14.10;;;7.80;;
10114;SDS011;5097;43.260;27.812;2023-10-31T01:18:00;10.23;;;6.70;;
10114;SDS011;5097;43.260;27.812;2023-10-31T01:20:46;14.10;;;8.20;;
10114;SDS011;5097;43.260;27.812;2023-10-31T01:23:30;9.43;;;5.60;;
10114;SDS011;5097;43.260;27.812;2023-10-31T01:26:14;9.67;;;6.20;;
10114;SDS011;5097;43.260;27.812;2023-10-31T01:28:58;9.93;;;6.33;;
10114;SDS011;5097;43.260;27.812;2023-10-31T01:31:42;13.43;;;6.63;;
10114;SDS011;5097;43.260;27.812;2023-10-31T01:34:41;13.10;;;7.30;;
10114;SDS011;5097;43.260;27.812;2023-10-31T01:37:26;11.20;;;6.90;;
10114;SDS011;5097;43.260;27.812;2023-10-31T01:40:12;12.37;;;6.43;;
10114;SDS011;5097;43.260;27.812;2023-10-31T01:42:56;13.73;;;6.30;;
10114;SDS011;5097;43.260;27.812;2023-10-31T01:45:40;14.57;;;5.07;;
10114;SDS011;5097;43.260;27.812;2023-10-31T01:48:24;8.97;;;5.93;;
10114;SDS011;5097;43.260;27.812;2023-10-31T01:51:10;7.07;;;4.67;;
10114;SDS011;5097;43.260;27.812;2023-10-31T01:53:56;8.53;;;5.50;;
10114;SDS011;5097;43.260;27.812;2023-10-31T01:56:40;9.47;;;4.97;;
10114;SDS011;5097;43.260;27.812;2023-10-31T01:59:25;10.07;;;5.47;;
10114;SDS011;5097;43.260;27.812;2023-10-31T02:02:10;11.43;;;5.57;;
10114;SDS011;5097;43.260;27.812;2023-10-31T02:04:55;11.47;;;6.87;;
10114;SDS011;5097;43.260;27.812;2023-10-31T02:07:39;15.53;;;8.57;;
10114;SDS011;5097;43.260;27.812;2023-10-31T02:10:28;10.07;;;6.20;;
10114;SDS011;5097;43.260;27.812;2023-10-31T02:13:12;12.93;;;7.30;;
10114;SDS011;5097;43.260;27.812;2023-10-31T02:15:58;10.27;;;5.90;;
10114;SDS011;5097;43.260;27.812;2023-10-31T02:18:42;8.20;;;5.83;;
10114;SDS011;5097;43.260;27.812;2023-10-31T02:21:26;9.97;;;6.33;;
10114;SDS011;5097;43.260;27.812;2023-10-31T02:24:15;9.33;;;5.90;;
10114;SDS011;5097;43.260;27.812;2023-10-31T02:26:59;12.57;;;7.33;;
10114;SDS011;5097;43.260;27.812;2023-10-31T02:29:43;14.00;;;7.80;;
10114;SDS011;5097;43.260;27.812;2023-10-31T02:32:27;15.17;;;8.00;;
10114;SDS011;5097;43.260;27.812;2023-10-31T02:35:11;16.37;;;7.90;;
10114;SDS011;5097;43.260;27.812;2023-10-31T02:37:56;12.43;;;7.40;;
10114;SDS011;5097;43.260;27.812;2023-10-31T02:40:41;13.97;;;7.80;;
10114;SDS011;5097;43.260;27.812;2023-10-31T02:43:25;12.60;;;6.97;;
10114;SDS011;5097;43.260;27.812;2023-10-31T02:46:10;15.00;;;7.70;;
10114;SDS011;5097;43.260;27.812;2023-10-31T02:48:54;18.50;;;9.60;;
10114;SDS011;5097;43.260;27.812;2023-10-31T02:51:38;28.17;;;13.50;;
10114;SDS011;5097;43.260;27.812;2023-10-31T02:54:22;22.87;;;11.63;;
10114;SDS011;5097;43.260;27.812;2023-10-31T02:57:08;25.70;;;12.93;;
10114;SDS011;5097;43.260;27.812;2023-10-31T02:59:52;25.17;;;11.70;;
10114;SDS011;5097;43.260;27.812;2023-10-31T03:02:36;24.50;;;12.63;;
10114;SDS011;5097;43.260;27.812;2023-10-31T03:05:21;20.67;;;11.03;;
10114;SDS011;5097;43.260;27.812;2023-10-31T03:08:05;24.50;;;11.90;;
10114;SDS011;5097;43.260;27.812;2023-10-31T03:10:52;21.57;;;10.77;;
10114;SDS011;5097;43.260;27.812;2023-10-31T03:13:38;26.37;;;11.17;;
10114;SDS011;5097;43.260;27.812;2023-10-31T03:16:22;23.17;;;11.20;;
10114;SDS011;5097;43.260;27.812;2023-10-31T03:19:06;21.53;;;10.33;;
10114;SDS011;5097;43.260;27.812;2023-10-31T03:21:51;20.63;;;10.70;;
10114;SDS011;5097;43.260;27.812;2023-10-31T03:24:35;26.77;;;12.53;;
10114;SDS011;5097;43.260;27.812;2023-10-31T03:27:20;21.57;;;11.10;;
10114;SDS011;5097;43.260;27.812;2023-10-31T03:30:07;23.37;;;10.37;;
10114;SDS011;5097;43.260;27.812;2023-10-31T03:32:52;14.83;;;9.27;;
10114;SDS011;5097;43.260;27.812;2023-10-31T03:35:36;18.77;;;10.63;;
10114;SDS011;5097;43.260;27.812;2023-10-31T03:38:20;17.77;;;9.93;;
10114;SDS011;5097;43.260;27.812;2023-10-31T03:41:04;15.00;;;8.67;;
10114;SDS011;5097;43.260;27.812;2023-10-31T03:43:48;19.93;;;10.43;;
10114;SDS011;5097;43.260;27.812;2023-10-31T03:46:34;21.80;;;11.10;;
10114;SDS011;5097;43.260;27.812;2023-10-31T03:49:18;19.27;;;10.60;;
10114;SDS011;5097;43.260;27.812;2023-10-31T03:52:02;17.23;;;9.07;;
10114;SDS011;5097;43.260;27.812;2023-10-31T03:54:46;22.70;;;9.43;;
10114;SDS011;5097;43.260;27.812;2023-10-31T03:57:31;18.27;;;9.17;;
10114;SDS011;5097;43.260;27.812;2023-10-31T04:00:15;19.47;;;10.13;;
10114;SDS011;5097;43.260;27.812;2023-10-31T04:03:01;17.50;;;10.03;;
10114;SDS011;5097;43.260;27.812;2023-10-31T04:05:45;20.87;;;11.20;;
10114;SDS011;5097;43.260;27.812;2023-10-31T04:08:30;20.93;;;10.37;;
10114;SDS011;5097;43.260;27.812;2023-10-31T04:11:14;21.27;;;11.30;;
10114;SDS011;5097;43.260;27.812;2023-10-31T04:13:59;21.73;;;10.83;;
10114;SDS011;5097;43.260;27.812;2023-10-31T04:16:43;23.33;;;11.27;;
10114;SDS011;5097;43.260;27.812;2023-10-31T04:19:30;24.00;;;12.40;;
10114;SDS011;5097;43.260;27.812;2023-10-31T04:22:14;30.33;;;13.33;;
10114;SDS011;5097;43.260;27.812;2023-10-31T04:24:58;29.87;;;13.73;;
10114;SDS011;5097;43.260;27.812;2023-10-31T04:27:42;25.00;;;12.27;;
10114;SDS011;5097;43.260;27.812;2023-10-31T04:30:27;27.07;;;13.00;;
10114;SDS011;5097;43.260;27.812;2023-10-31T04:33:11;29.27;;;13.47;;
10114;SDS011;5097;43.260;27.812;2023-10-31T04:35:57;22.57;;;12.17;;
10114;SDS011;5097;43.260;27.812;2023-10-31T04:38:43;31.57;;;13.67;;
10114;SDS011;5097;43.260;27.812;2023-10-31T04:41:28;30.67;;;14.77;;
10114;SDS011;5097;43.260;27.812;2023-10-31T04:44:12;31.93;;;13.50;;
10114;SDS011;5097;43.260;27.812;2023-10-31T04:46:57;30.47;;;14.40;;
10114;SDS011;5097;43.260;27.812;2023-10-31T04:49:42;29.50;;;14.33;;
10114;SDS011;5097;43.260;27.812;2023-10-31T04:52:28;29.80;;;14.73;;
10114;SDS011;5097;43.260;27.812;2023-10-31T04:55:12;28.00;;;15.13;;
10114;SDS011;5097;43.260;27.812;2023-10-31T04:58:00;31.53;;;14.77;;
10114;SDS011;5097;43.260;27.812;2023-10-31T05:00:44;31.13;;;15.67;;
10114;SDS011;5097;43.260;27.812;2023-10-31T05:03:29;36.80;;;16.77;;
10114;SDS011;5097;43.260;27.812;2023-10-31T05:06:18;31.63;;;16.60;;
10114;SDS011;5097;43.260;27.812;2023-10-31T05:09:05;32.97;;;15.10;;
10114;SDS011;5097;43.260;27.812;2023-10-31T05:11:50;31.80;;;15.13;;
10114;SDS011;5097;43.260;27.812;2023-10-31T05:14:34;30.60;;;16.30;;
10114;SDS011;5097;43.260;27.812;2023-10-31T05:17:18;35.83;;;16.60;;
10114;SDS011;5097;43.260;27.812;2023-10-31T05:20:02;29.53;;;16.07;;
10114;SDS011;5097;43.260;27.812;2023-10-31T05:22:47;34.03;;;16.07;;
10114;SDS011;5097;43.260;27.812;2023-10-31T05:25:32;34.23;;;16.27;;
10114;SDS011;5097;43.260;27.812;2023-10-31T05:28:16;30.57;;;15.57;;
10114;SDS011;5097;43.260;27.812;2023-10-31T05:31:00;31.50;;;16.23;;
10114;SDS011;5097;43.260;27.812;2023-10-31T05:33:45;29.80;;;16.60;;
10114;SDS011;5097;43.260;27.812;2023-10-31T05:36:30;25.93;;;15.37;;
10114;SDS011;5097;43.260;27.812;2023-10-31T05:39:14;22.17;;;14.50;;
10114;SDS011;5097;43.260;27.812;2023-10-31T05:42:00;26.83;;;17.67;;
10114;SDS011;5097;43.260;27.812;2023-10-31T05:44:44;27.87;;;16.40;;
10114;SDS011;5097;43.260;27.812;2023-10-31T05:47:28;22.75;;;15.60;;
10114;SDS011;5097;43.260;27.812;2023-10-31T05:50:12;25.30;;;14.35;;
10114;SDS011;5097;43.260;27.812;2023-10-31T05:52:57;24.77;;;14.88;;
10114;SDS011;5097;43.260;27.812;2023-10-31T05:55:41;21.58;;;13.63;;
10114;SDS011;5097;43.260;27.812;2023-10-31T05:58:26;21.50;;;13.32;;
10114;SDS011;5097;43.260;27.812;2023-10-31T06:01:11;21.67;;;13.43;;
10114;SDS011;5097;43.260;27.812;2023-10-31T06:03:55;22.52;;;13.88;;
10114;SDS011;5097;43.260;27.812;2023-10-31T06:06:39;18.70;;;13.30;;
10114;SDS011;5097;43.260;27.812;2023-10-31T06:09:23;16.92;;;12.80;;
10114;SDS011;5097;43.260;27.812;2023-10-31T06:12:07;16.88;;;12.38;;
10114;SDS011;5097;43.260;27.812;2023-10-31T06:14:53;18.20;;;13.05;;
10114;SDS011;5097;43.260;27.812;2023-10-31T06:17:38;18.55;;;11.48;;
10114;SDS011;5097;43.260;27.812;2023-10-31T06:20:22;12.75;;;11.20;;
10114;SDS011;5097;43.260;27.812;2023-10-31T06:23:06;21.05;;;10.85;;
10114;SDS011;5097;43.260;27.812;2023-10-31T06:25:50;17.40;;;11.90;;
10114;SDS011;5097;43.260;27.812;2023-10-31T06:28:35;15.57;;;11.65;;
10114;SDS011;5097;43.260;27.812;2023-10-31T06:31:28;15.23;;;12.07;;
10114;SDS011;5097;43.260;27.812;2023-10-31T06:34:12;16.90;;;11.02;;
10114;SDS011;5097;43.260;27.812;2023-10-31T06:36:56;14.15;;;9.90;;
10114;SDS011;5097;43.260;27.812;2023-10-31T06:39:40;14.80;;;9.13;;
10114;SDS011;5097;43.260;27.812;2023-10-31T06:42:24;12.60;;;9.73;;
10114;SDS011;5097;43.260;27.812;2023-10-31T06:45:09;10.55;;;8.95;;
10114;SDS011;5097;43.260;27.812;2023-10-31T06:47:55;9.68;;;8.52;;
10114;SDS011;5097;43.260;27.812;2023-10-31T06:50:39;11.70;;;9.35;;
10114;SDS011;5097;43.260;27.812;2023-10-31T06:53:23;11.30;;;8.70;;
10114;SDS011;5097;43.260;27.812;2023-10-31T06:56:07;10.70;;;8.70;;
10114;SDS011;5097;43.260;27.812;2023-10-31T06:58:51;13.02;;;9.90;;
10114;SDS011;5097;43.260;27.812;2023-10-31T07:01:35;10.93;;;8.80;;
10114;SDS011;5097;43.260;27.812;2023-10-31T07:04:21;10.23;;;9.10;;
10114;SDS011;5097;43.260;27.812;2023-10-31T07:07:05;12.70;;;9.13;;
10114;SDS011;5097;43.260;27.812;2023-10-31T07:09:50;10.35;;;7.95;;
10114;SDS011;5097;43.260;27.812;2023-10-31T07:12:34;8.98;;;7.55;;
10114;SDS011;5097;43.260;27.812;2023-10-31T07:15:18;9.77;;;8.57;;
10114;SDS011;5097;43.260;27.812;2023-10-31T07:18:03;9.98;;;8.23;;
10114;SDS011;5097;43.260;27.812;2023-10-31T07:20:49;10.55;;;7.95;;
10114;SDS011;5097;43.260;27.812;2023-10-31T07:23:33;9.18;;;7.40;;
10114;SDS011;5097;43.260;27.812;2023-10-31T07:26:19;9.65;;;8.65;;
10114;SDS011;5097;43.260;27.812;2023-10-31T07:29:04;8.82;;;7.90;;
10114;SDS011;5097;43.260;27.812;2023-10-31T07:31:48;8.50;;;7.25;;
10114;SDS011;5097;43.260;27.812;2023-10-31T07:34:32;9.07;;;7.47;;
10114;SDS011;5097;43.260;27.812;2023-10-31T07:37:18;8.75;;;6.93;;
10114;SDS011;5097;43.260;27.812;2023-10-31T07:40:02;7.28;;;6.25;;
10114;SDS011;5097;43.260;27.812;2023-10-31T07:42:46;7.05;;;6.28;;
10114;SDS011;5097;43.260;27.812;2023-10-31T07:45:30;8.02;;;7.28;;
10114;SDS011;5097;43.260;27.812;2023-10-31T07:48:14;6.93;;;5.88;;
10114;SDS011;5097;43.260;27.812;2023-10-31T07:50:58;8.65;;;6.50;;
10114;SDS011;5097;43.260;27.812;2023-10-31T07:53:44;6.55;;;5.95;;
10114;SDS011;5097;43.260;27.812;2023-10-31T07:56:29;7.30;;;5.82;;
10114;SDS011;5097;43.260;27.812;2023-10-31T07:59:15;6.47;;;5.60;;
10114;SDS011;5097;43.260;27.812;2023-10-31T08:01:59;6.43;;;5.85;;
10114;SDS011;5097;43.260;27.812;2023-10-31T08:04:43;7.22;;;5.55;;
10114;SDS011;5097;43.260;27.812;2023-10-31T08:07:27;6.80;;;5.43;;
10114;SDS011;5097;43.260;27.812;2023-10-31T08:10:14;6.95;;;5.25;;
10114;SDS011;5097;43.260;27.812;2023-10-31T08:12:58;9.13;;;5.50;;
10114;SDS011;5097;43.260;27.812;2023-10-31T08:15:42;6.57;;;5.25;;
10114;SDS011;5097;43.260;27.812;2023-10-31T08:18:26;6.00;;;4.93;;
10114;SDS011;5097;43.260;27.812;2023-10-31T08:21:10;5.57;;;4.97;;
10114;SDS011;5097;43.260;27.812;2023-10-31T08:23:55;6.63;;;4.63;;
10114;SDS011;5097;43.260;27.812;2023-10-31T08:26:41;5.68;;;5.18;;
10114;SDS011;5097;43.260;27.812;2023-10-31T08:29:25;5.43;;;4.90;;
10114;SDS011;5097;43.260;27.812;2023-10-31T08:32:09;7.25;;;5.25;;
10114;SDS011;5097;43.260;27.812;2023-10-31T08:34:53;7.90;;;4.90;;
10114;SDS011;5097;43.260;27.812;2023-10-31T08:37:38;9.05;;;5.20;;
10114;SDS011;5097;43.260;27.812;2023-10-31T08:40:22;6.20;;;5.10;;
10114;SDS011;5097;43.260;27.812;2023-10-31T08:43:08;5.60;;;4.78;;
10114;SDS011;5097;43.260;27.812;2023-10-31T08:45:52;5.32;;;4.85;;
10114;SDS011;5097;43.260;27.812;2023-10-31T08:48:36;6.75;;;4.43;;
10114;SDS011;5097;43.260;27.812;2023-10-31T08:51:21;7.03;;;4.47;;
10114;SDS011;5097;43.260;27.812;2023-10-31T08:54:05;5.22;;;4.72;;
10114;SDS011;5097;43.260;27.812;2023-10-31T08:56:51;4.53;;;4.13;;
10114;SDS011;5097;43.260;27.812;2023-10-31T08:59:37;5.28;;;4.30;;
10114;SDS011;5097;43.260;27.812;2023-10-31T09:02:21;5.70;;;4.68;;
10114;SDS011;5097;43.260;27.812;2023-10-31T09:05:06;8.30;;;5.00;;
10114;SDS011;5097;43.260;27.812;2023-10-31T09:07:50;6.00;;;4.93;;
10114;SDS011;5097;43.260;27.812;2023-10-31T09:10:37;6.97;;;4.57;;
10114;SDS011;5097;43.260;27.812;2023-10-31T09:13:22;5.00;;;4.50;;
10114;SDS011;5097;43.260;27.812;2023-10-31T09:16:07;5.80;;;4.32;;
10114;SDS011;5097;43.260;27.812;2023-10-31T09:18:52;7.43;;;4.20;;
10114;SDS011;5097;43.260;27.812;2023-10-31T09:21:36;5.85;;;4.70;;
10114;SDS011;5097;43.260;27.812;2023-10-31T09:24:20;7.28;;;4.65;;
10114;SDS011;5097;43.260;27.812;2023-10-31T09:27:06;6.55;;;4.47;;
10114;SDS011;5097;43.260;27.812;2023-10-31T09:29:50;5.55;;;4.70;;
10114;SDS011;5097;43.260;27.812;2023-10-31T09:32:36;4.45;;;4.10;;
10114;SDS011;5097;43.260;27.812;2023-10-31T09:35:20;8.10;;;5.13;;
10114;SDS011;5097;43.260;27.812;2023-10-31T09:38:04;4.82;;;4.43;;
10114;SDS011;5097;43.260;27.812;2023-10-31T09:40:48;5.57;;;4.53;;
10114;SDS011;5097;43.260;27.812;2023-10-31T09:43:33;7.38;;;4.90;;
10114;SDS011;5097;43.260;27.812;2023-10-31T09:46:17;6.38;;;4.82;;
10114;SDS011;5097;43.260;27.812;2023-10-31T09:49:03;6.25;;;5.53;;
10114;SDS011;5097;43.260;27.812;2023-10-31T09:51:48;6.45;;;4.45;;
10114;SDS011;5097;43.260;27.812;2023-10-31T09:54:32;6.10;;;4.78;;
10114;SDS011;5097;43.260;27.812;2023-10-31T09:57:17;6.10;;;4.93;;
10114;SDS011;5097;43.260;27.812;2023-10-31T10:00:02;5.35;;;4.32;;
10114;SDS011;5097;43.260;27.812;2023-10-31T10:02:51;5.97;;;4.78;;
10114;SDS011;5097;43.260;27.812;2023-10-31T10:05:37;6.07;;;4.60;;
10114;SDS011;5097;43.260;27.812;2023-10-31T10:08:24;8.05;;;6.05;;
10114;SDS011;5097;43.260;27.812;2023-10-31T10:11:08;4.90;;;4.47;;
10114;SDS011;5097;43.260;27.812;2023-10-31T10:13:52;8.80;;;4.30;;
10114;SDS011;5097;43.260;27.812;2023-10-31T10:16:36;4.90;;;4.40;;
10114;SDS011;5097;43.260;27.812;2023-10-31T10:19:21;5.30;;;4.80;;
10114;SDS011;5097;43.260;27.812;2023-10-31T10:22:07;4.90;;;4.50;;
10114;SDS011;5097;43.260;27.812;2023-10-31T10:24:52;5.07;;;4.05;;
10114;SDS011;5097;43.260;27.812;2023-10-31T10:27:36;5.55;;;5.03;;
10114;SDS011;5097;43.260;27.812;2023-10-31T10:30:20;4.57;;;4.18;;
10114;SDS011;5097;43.260;27.812;2023-10-31T10:33:04;6.22;;;4.15;;
10114;SDS011;5097;43.260;27.812;2023-10-31T10:35:48;5.63;;;4.20;;
10114;SDS011;5097;43.260;27.812;2023-10-31T10:38:34;5.25;;;4.78;;
10114;SDS011;5097;43.260;27.812;2023-10-31T10:41:20;4.97;;;4.45;;
10114;SDS011;5097;43.260;27.812;2023-10-31T10:44:07;5.15;;;4.68;;
10114;SDS011;5097;43.260;27.812;2023-10-31T10:46:54;5.15;;;4.65;;
10114;SDS011;5097;43.260;27.812;2023-10-31T10:49:41;4.40;;;3.97;;
10114;SDS011;5097;43.260;27.812;2023-10-31T10:52:27;5.47;;;4.20;;
10114;SDS011;5097;43.260;27.812;2023-10-31T10:55:19;4.78;;;4.38;;
10114;SDS011;5097;43.260;27.812;2023-10-31T10:58:08;4.82;;;4.43;;
10114;SDS011;5097;43.260;27.812;2023-10-31T11:01:01;4.88;;;4.47;;
10114;SDS011;5097;43.260;27.812;2023-10-31T11:03:46;6.35;;;4.88;;
10114;SDS011;5097;43.260;27.812;2023-10-31T11:06:30;5.13;;;4.68;;
10114;SDS011;5097;43.260;27.812;2023-10-31T11:09:15;5.03;;;4.53;;
10114;SDS011;5097;43.260;27.812;2023-10-31T11:12:01;6.13;;;4.78;;
10114;SDS011;5097;43.260;27.812;2023-10-31T11:14:45;4.72;;;4.32;;
10114;SDS011;5097;43.260;27.812;2023-10-31T11:17:31;5.18;;;4.00;;
10114;SDS011;5097;43.260;27.812;2023-10-31T11:20:18;9.02;;;5.28;;
10114;SDS011;5097;43.260;27.812;2023-10-31T11:23:03;5.03;;;4.53;;
10114;SDS011;5097;43.260;27.812;2023-10-31T11:25:49;5.10;;;4.60;;
10114;SDS011;5097;43.260;27.812;2023-10-31T11:28:37;6.00;;;4.00;;
10114;SDS011;5097;43.260;27.812;2023-10-31T11:31:21;4.55;;;3.88;;
10114;SDS011;5097;43.260;27.812;2023-10-31T11:34:05;5.07;;;4.57;;
10114;SDS011;5097;43.260;27.812;2023-10-31T11:36:50;6.63;;;5.22;;
10114;SDS011;5097;43.260;27.812;2023-10-31T11:39:34;6.68;;;5.25;;
10114;SDS011;5097;43.260;27.812;2023-10-31T11:42:18;5.70;;;4.47;;
10114;SDS011;5097;43.260;27.812;2023-10-31T11:45:06;5.30;;;4.53;;
10114;SDS011;5097;43.260;27.812;2023-10-31T11:47:51;6.03;;;5.45;;
10114;SDS011;5097;43.260;27.812;2023-10-31T11:50:36;6.97;;;5.10;;
10114;SDS011;5097;43.260;27.812;2023-10-31T11:53:22;7.25;;;5.78;;
10114;SDS011;5097;43.260;27.812;2023-10-31T11:56:06;6.85;;;5.72;;
10114;SDS011;5097;43.260;27.812;2023-10-31T11:58:57;7.75;;;4.65;;
10114;SDS011;5097;43.260;27.812;2023-10-31T12:01:47;5.53;;;5.03;;
10114;SDS011;5097;43.260;27.812;2023-10-31T12:04:31;7.00;;;5.40;;
10114;SDS011;5097;43.260;27.812;2023-10-31T12:07:18;6.82;;;5.28;;
10114;SDS011;5097;43.260;27.812;2023-10-31T12:10:02;5.13;;;4.63;;
10114;SDS011;5097;43.260;27.812;2023-10-31T12:12:47;5.47;;;4.68;;
10114;SDS011;5097;43.260;27.812;2023-10-31T12:15:32;5.03;;;4.63;;
10114;SDS011;5097;43.260;27.812;2023-10-31T12:18:18;7.15;;;5.40;;
10114;SDS011;5097;43.260;27.812;2023-10-31T12:21:03;10.27;;;5.35;;
10114;SDS011;5097;43.260;27.812;2023-10-31T12:23:49;7.85;;;5.20;;
10114;SDS011;5097;43.260;27.812;2023-10-31T12:26:36;7.75;;;5.07;;
10114;SDS011;5097;43.260;27.812;2023-10-31T12:29:20;8.52;;;5.90;;
10114;SDS011;5097;43.260;27.812;2023-10-31T12:32:05;8.18;;;5.00;;
10114;SDS011;5097;43.260;27.812;2023-10-31T12:34:57;6.38;;;5.78;;
10114;SDS011;5097;43.260;27.812;2023-10-31T12:37:43;5.85;;;5.35;;
10114;SDS011;5097;43.260;27.812;2023-10-31T12:40:29;5.93;;;5.00;;
10114;SDS011;5097;43.260;27.812;2023-10-31T12:43:14;7.72;;;5.35;;
10114;SDS011;5097;43.260;27.812;2023-10-31T12:49:11;6.07;;;5.32;;
10114;SDS011;5097;43.260;27.812;2023-10-31T12:51:58;5.85;;;5.20;;
10114;SDS011;5097;43.260;27.812;2023-10-31T12:54:44;6.55;;;5.20;;
10114;SDS011;5097;43.260;27.812;2023-10-31T12:57:29;5.75;;;4.68;;
10114;SDS011;5097;43.260;27.812;2023-10-31T13:00:19;7.10;;;4.60;;
10114;SDS011;5097;43.260;27.812;2023-10-31T13:03:08;7.63;;;4.90;;
10114;SDS011;5097;43.260;27.812;2023-10-31T13:05:54;5.22;;;4.72;;
10114;SDS011;5097;43.260;27.812;2023-10-31T13:08:40;5.95;;;4.68;;
10114;SDS011;5097;43.260;27.812;2023-10-31T13:11:28;5.22;;;4.55;;
10114;SDS011;5097;43.260;27.812;2023-10-31T13:14:13;5.38;;;4.97;;
10114;SDS011;5097;43.260;27.812;2023-10-31T13:16:58;7.72;;;5.50;;
10114;SDS011;5097;43.260;27.812;2023-10-31T13:19:43;10.43;;;5.32;;
10114;SDS011;5097;43.260;27.812;2023-10-31T13:22:27;5.40;;;4.85;;
10114;SDS011;5097;43.260;27.812;2023-10-31T13:25:13;6.22;;;5.45;;
10114;SDS011;5097;43.260;27.812;2023-10-31T13:27:59;5.60;;;4.43;;
10114;SDS011;5097;43.260;27.812;2023-10-31T13:30:44;5.53;;;4.70;;
10114;SDS011;5097;43.260;27.812;2023-10-31T13:33:31;7.60;;;5.22;;
10114;SDS011;5097;43.260;27.812;2023-10-31T13:36:16;8.25;;;5.15;;
10114;SDS011;5097;43.260;27.812;2023-10-31T13:39:01;6.45;;;5.18;;
10114;SDS011;5097;43.260;27.812;2023-10-31T13:41:47;6.32;;;5.78;;
10114;SDS011;5097;43.260;27.812;2023-10-31T13:44:32;8.43;;;5.68;;
10114;SDS011;5097;43.260;27.812;2023-10-31T13:47:16;8.15;;;6.00;;
10114;SDS011;5097;43.260;27.812;2023-10-31T13:50:01;9.57;;;5.13;;
10114;SDS011;5097;43.260;27.812;2023-10-31T13:52:45;9.20;;;5.82;;
10114;SDS011;5097;43.260;27.812;2023-10-31T13:55:30;7.22;;;5.43;;
10114;SDS011;5097;43.260;27.812;2023-10-31T13:58:15;7.05;;;5.40;;
10114;SDS011;5097;43.260;27.812;2023-10-31T14:01:00;6.25;;;5.45;;
10114;SDS011;5097;43.260;27.812;2023-10-31T14:03:44;8.32;;;5.93;;
10114;SDS011;5097;43.260;27.812;2023-10-31T14:06:28;7.15;;;5.25;;
10114;SDS011;5097;43.260;27.812;2023-10-31T14:09:15;7.90;;;5.30;;
10114;SDS011;5097;43.260;27.812;2023-10-31T14:11:59;7.95;;;5.45;;
10114;SDS011;5097;43.260;27.812;2023-10-31T14:14:45;8.65;;;6.18;;
10114;SDS011;5097;43.260;27.812;2023-10-31T14:17:31;7.85;;;5.78;;
10114;SDS011;5097;43.260;27.812;2023-10-31T14:20:15;10.10;;;6.50;;
10114;SDS011;5097;43.260;27.812;2023-10-31T14:23:00;9.45;;;6.03;;
10114;SDS011;5097;43.260;27.812;2023-10-31T14:25:44;6.63;;;5.93;;
10114;SDS011;5097;43.260;27.812;2023-10-31T14:28:28;8.60;;;6.55;;
10114;SDS011;5097;43.260;27.812;2023-10-31T14:31:13;7.40;;;6.55;;
10114;SDS011;5097;43.260;27.812;2023-10-31T14:33:58;8.75;;;6.32;;
10114;SDS011;5097;43.260;27.812;2023-10-31T14:36:42;8.93;;;7.03;;
10114;SDS011;5097;43.260;27.812;2023-10-31T14:39:26;7.53;;;6.75;;
10114;SDS011;5097;43.260;27.812;2023-10-31T14:42:11;9.55;;;6.85;;
10114;SDS011;5097;43.260;27.812;2023-10-31T14:44:55;8.15;;;6.95;;
10114;SDS011;5097;43.260;27.812;2023-10-31T14:47:41;8.43;;;6.85;;
10114;SDS011;5097;43.260;27.812;2023-10-31T14:50:25;9.80;;;6.97;;
10114;SDS011;5097;43.260;27.812;2023-10-31T14:53:09;10.27;;;7.28;;
10114;SDS011;5097;43.260;27.812;2023-10-31T14:55:53;10.20;;;7.25;;
10114;SDS011;5097;43.260;27.812;2023-10-31T14:58:38;11.50;;;7.80;;
10114;SDS011;5097;43.260;27.812;2023-10-31T15:01:22;9.43;;;7.75;;
10114;SDS011;5097;43.260;27.812;2023-10-31T15:04:08;7.93;;;6.93;;
10114;SDS011;5097;43.260;27.812;2023-10-31T15:06:53;8.55;;;7.72;;
10114;SDS011;5097;43.260;27.812;2023-10-31T15:09:37;10.60;;;7.63;;
10114;SDS011;5097;43.260;27.812;2023-10-31T15:12:23;13.52;;;8.40;;
10114;SDS011;5097;43.260;27.812;2023-10-31T15:15:08;9.13;;;8.25;;
10114;SDS011;5097;43.260;27.812;2023-10-31T15:17:52;11.75;;;8.98;;
10114;SDS011;5097;43.260;27.812;2023-10-31T15:20:38;14.50;;;10.35;;
10114;SDS011;5097;43.260;27.812;2023-10-31T15:23:22;17.48;;;11.43;;
10114;SDS011;5097;43.260;27.812;2023-10-31T15:26:08;12.45;;;9.90;;
10114;SDS011;5097;43.260;27.812;2023-10-31T15:28:56;13.70;;;10.43;;
10114;SDS011;5097;43.260;27.812;2023-10-31T15:31:42;11.52;;;9.07;;
10114;SDS011;5097;43.260;27.812;2023-10-31T15:34:28;16.55;;;10.43;;
10114;SDS011;5097;43.260;27.812;2023-10-31T15:37:13;16.13;;;10.63;;
10114;SDS011;5097;43.260;27.812;2023-10-31T15:39:57;11.75;;;8.98;;
10114;SDS011;5097;43.260;27.812;2023-10-31T15:42:42;13.02;;;9.73;;
10114;SDS011;5097;43.260;27.812;2023-10-31T15:45:27;14.20;;;9.55;;
10114;SDS011;5097;43.260;27.812;2023-10-31T15:48:11;9.65;;;8.65;;
10114;SDS011;5097;43.260;27.812;2023-10-31T15:50:56;27.00;;;14.25;;
10114;SDS011;5097;43.260;27.812;2023-10-31T15:53:41;22.40;;;14.43;;
10114;SDS011;5097;43.260;27.812;2023-10-31T15:56:26;18.67;;;11.95;;
10114;SDS011;5097;43.260;27.812;2023-10-31T15:59:10;13.95;;;9.70;;
10114;SDS011;5097;43.260;27.812;2023-10-31T16:01:54;14.30;;;10.40;;
10114;SDS011;5097;43.260;27.812;2023-10-31T16:04:38;14.57;;;9.75;;
10114;SDS011;5097;43.260;27.812;2023-10-31T16:07:23;17.33;;;10.70;;
10114;SDS011;5097;43.260;27.812;2023-10-31T16:10:09;14.32;;;9.88;;
10114;SDS011;5097;43.260;27.812;2023-10-31T16:12:53;13.13;;;10.68;;
10114;SDS011;5097;43.260;27.812;2023-10-31T16:15:37;16.35;;;12.20;;
10114;SDS011;5097;43.260;27.812;2023-10-31T16:18:22;18.65;;;12.73;;
10114;SDS011;5097;43.260;27.812;2023-10-31T16:21:14;18.52;;;12.40;;
10114;SDS011;5097;43.260;27.812;2023-10-31T16:23:59;18.02;;;12.65;;
10114;SDS011;5097;43.260;27.812;2023-10-31T16:26:44;22.33;;;12.60;;